Time;durP1;ratioP1;P1;durP2;ratioP2;P2;SDS_P1;SDS_P2;PMS_P1;PMS_P2;Temp;Humidity;BMP_temperature;BMP_pressure;BME280_temperature;BME280_humidity;BME280_pressure;Samples;Min_cycle;Max_cycle;Signal;HPM_P1;HPM_P2
2021/09/11 00:00:57;;;;;;;30.60;20.85;;;;;;;16.49;100.00;101330.16;2090532;28;20040;-63
2021/09/11 00:01:58;;;;;;;39.80;21.55;;;;;;;16.48;100.00;101329.34;2090347;28;20056;-63
2021/09/11 00:02:58;;;;;;;29.40;21.83;;;;;;;16.48;100.00;101336.38;2099411;28;20036;-61
2021/09/11 00:03:59;;;;;;;30.48;20.70;;;;;;;16.44;100.00;101338.38;2099338;28;20459;-63
2021/09/11 00:05:00;;;;;;;25.30;19.90;;;;;;;16.43;100.00;101339.28;2099409;28;20060;-63
2021/09/11 00:06:01;;;;;;;28.35;20.55;;;;;;;16.41;100.00;101338.53;2099408;28;20489;-62
2021/09/11 00:07:02;;;;;;;;;;;;;;;16.41;100.00;101338.53;2099688;28;20029;-62
2021/09/11 00:08:04;;;;;;;24.17;18.37;;;;;;;16.39;100.00;101342.22;2090312;28;19971;-62
2021/09/11 00:09:06;;;;;;;31.02;20.25;;;;;;;16.36;100.00;101332.72;2090473;28;20290;-63
2021/09/11 00:10:08;;;;;;;29.08;20.40;;;;;;;16.35;100.00;101333.63;2098618;28;20183;-63
2021/09/11 00:11:09;;;;;;;27.60;20.13;;;;;;;16.33;100.00;101335.53;2098728;28;20031;-62
2021/09/11 00:12:11;;;;;;;33.75;20.65;;;;;;;16.31;100.00;101338.25;2099331;28;20034;-62
2021/09/11 00:13:12;;;;;;;26.95;20.38;;;;;;;16.31;100.00;101337.38;2099293;28;20485;-63
2021/09/11 00:14:12;;;;;;;26.58;20.35;;;;;;;16.28;100.00;101337.59;2099176;28;20111;-62
2021/09/11 00:15:15;;;;;;;25.88;19.85;;;;;;;16.26;100.00;101328.91;2099322;28;20036;-62
2021/09/11 00:16:16;;;;;;;33.00;20.73;;;;;;;16.25;100.00;101332.50;2099272;28;20021;-61
2021/09/11 00:17:17;;;;;;;26.52;20.10;;;;;;;16.25;100.00;101329.88;2090058;28;20130;-62
2021/09/11 00:18:18;;;;;;;28.10;19.85;;;;;;;16.22;100.00;101330.91;2090428;28;20051;-64
2021/09/11 00:19:20;;;;;;;29.52;21.70;;;;;;;16.20;100.00;101336.25;2090971;28;20042;-62
2021/09/11 00:20:21;;;;;;;30.33;20.23;;;;;;;16.18;100.00;101332.00;2091006;28;20432;-62
2021/09/11 00:21:21;;;;;;;29.08;20.25;;;;;;;16.17;100.00;101330.28;2090907;28;20025;-62
2021/09/11 00:22:22;;;;;;;32.95;20.92;;;;;;;16.15;100.00;101333.00;2090922;28;20059;-63
2021/09/11 00:23:23;;;;;;;;;;;;;;;16.16;100.00;101329.47;2091323;28;20025;-63
2021/09/11 00:24:24;;;;;;;26.20;20.50;;;;;;;16.13;100.00;101329.66;2090971;28;19909;-63
2021/09/11 00:25:25;;;;;;;29.17;20.58;;;;;;;16.13;100.00;101327.00;2090277;28;20394;-63
2021/09/11 00:26:26;;;;;;;;;;;;;;;16.14;100.00;101335.72;2090806;28;20082;-62
2021/09/11 00:27:27;;;;;;;26.38;19.02;;;;;;;16.12;100.00;101332.34;2090889;28;19909;-63
2021/09/11 00:28:28;;;;;;;24.83;18.17;;;;;;;16.09;100.00;101330.75;2090165;28;20017;-63
2021/09/11 00:29:29;;;;;;;36.08;19.83;;;;;;;16.08;100.00;101329.91;2090230;28;20029;-63
2021/09/11 00:30:29;;;;;;;;;;;;;;;16.10;100.00;101327.19;2090767;28;20452;-62
2021/09/11 00:31:30;;;;;;;22.30;17.58;;;;;;;16.07;100.00;101325.56;2090829;28;19909;-64
2021/09/11 00:32:31;;;;;;;26.88;18.02;;;;;;;16.05;100.00;101323.97;2090929;28;20505;-63
2021/09/11 00:33:31;;;;;;;24.33;18.02;;;;;;;16.06;100.00;101328.28;2090861;28;20021;-62
2021/09/11 00:34:32;;;;;;;24.73;16.97;;;;;;;16.05;99.95;101329.25;2090932;28;20104;-61
2021/09/11 00:35:33;;;;;;;27.45;18.70;;;;;;;16.03;100.00;101328.47;2090177;28;20028;-63
2021/09/11 00:36:34;;;;;;;25.77;19.75;;;;;;;16.02;100.00;101326.78;2090305;28;20028;-63
2021/09/11 00:37:34;;;;;;;29.70;19.00;;;;;;;15.99;100.00;101325.19;2090730;28;20025;-62
2021/09/11 00:38:35;;;;;;;25.55;16.98;;;;;;;15.99;100.00;101321.69;2090210;28;20112;-63
2021/09/11 00:39:36;;;;;;;29.13;20.45;;;;;;;15.98;100.00;101327.91;2090313;28;20528;-62
2021/09/11 00:40:36;;;;;;;30.70;20.70;;;;;;;15.95;100.00;101327.13;2090865;28;20040;-63
2021/09/11 00:41:37;;;;;;;29.42;20.13;;;;;;;15.94;100.00;101324.53;2090767;28;20024;-63
2021/09/11 00:42:41;;;;;;;32.63;20.83;;;;;;;15.92;100.00;101322.03;2090148;28;20516;-63
2021/09/11 00:43:50;;;;;;;29.08;21.27;;;;;;;15.90;100.00;101323.88;2090185;28;20497;-63
2021/09/11 00:44:51;;;;;;;35.33;20.02;;;;;;;15.87;100.00;101325.88;2090828;28;20032;-63
2021/09/11 00:45:52;;;;;;;;;;;;;;;15.84;100.00;101325.09;2091151;28;20055;-62
2021/09/11 00:46:53;;;;;;;28.03;19.37;;;;;;;15.84;100.00;101324.22;2090793;28;20277;-63
2021/09/11 00:47:53;;;;;;;29.55;19.65;;;;;;;15.81;100.00;101335.78;2090737;28;20017;-62
2021/09/11 00:48:54;;;;;;;28.83;20.65;;;;;;;15.79;100.00;101334.19;2090003;28;20524;-63
2021/09/11 00:49:55;;;;;;;28.17;20.80;;;;;;;15.77;100.00;101333.44;2090110;28;20035;-62
2021/09/11 00:50:56;;;;;;;31.20;20.52;;;;;;;15.76;100.00;101331.72;2090761;28;20025;-62
2021/09/11 00:51:57;;;;;;;;;;;;;;;15.78;100.00;101332.50;2091212;28;20029;-62
2021/09/11 00:52:58;;;;;;;28.48;19.33;;;;;;;15.77;100.00;101330.81;2090733;28;19915;-62
2021/09/11 00:54:01;;;;;;;26.63;19.23;;;;;;;15.76;100.00;101331.72;2090762;28;20025;-64
2021/09/11 00:55:02;;;;;;;27.60;18.77;;;;;;;15.74;100.00;101333.59;2090096;28;20028;-61
2021/09/11 00:56:03;;;;;;;28.27;19.80;;;;;;;15.73;100.00;101337.19;2090061;28;20029;-61
2021/09/11 00:57:05;;;;;;;25.38;18.80;;;;;;;15.71;100.00;101330.19;2089965;28;20071;-63
2021/09/11 00:58:06;;;;;;;29.13;19.20;;;;;;;15.71;100.00;101330.19;2090039;28;20033;-62
2021/09/11 00:59:07;;;;;;;26.67;20.20;;;;;;;15.67;100.00;101333.94;2090697;28;20052;-62
2021/09/11 01:00:09;;;;;;;30.98;20.33;;;;;;;15.65;100.00;101334.97;2090677;28;20123;-62
2021/09/11 01:01:10;;;;;;;32.25;22.02;;;;;;;15.63;100.00;101332.41;2090119;28;20029;-64
2021/09/11 01:02:11;;;;;;;29.80;19.40;;;;;;;15.62;100.00;101335.97;2090407;28;20440;-62
2021/09/11 01:03:12;;;;;;;30.75;21.08;;;;;;;15.60;100.00;101331.75;2090689;28;20093;-63
2021/09/11 01:04:14;;;;;;;30.88;20.63;;;;;;;15.58;100.00;101331.84;2090634;28;20037;-63
2021/09/11 01:05:15;;;;;;;30.67;21.08;;;;;;;15.58;100.00;101337.09;2090092;28;20083;-63
2021/09/11 01:06:16;;;;;;;33.67;20.90;;;;;;;15.57;100.00;101338.03;2090032;28;20036;-62
2021/09/11 01:07:17;;;;;;;27.85;20.48;;;;;;;15.58;100.00;101335.28;2090625;28;20071;-62
2021/09/11 01:08:19;;;;;;;29.88;21.05;;;;;;;15.56;100.00;101331.06;2090650;28;20025;-63
2021/09/11 01:09:20;;;;;;;32.35;22.13;;;;;;;15.57;100.00;101332.78;2090670;28;20029;-63
2021/09/11 01:10:20;;;;;;;33.80;22.23;;;;;;;15.56;100.00;101328.41;2090335;28;20087;-64
2021/09/11 01:11:21;;;;;;;33.13;21.98;;;;;;;15.57;100.00;101335.41;2090509;28;20017;-63
2021/09/11 01:12:22;;;;;;;31.17;23.02;;;;;;;15.57;100.00;101332.78;2090640;28;20021;-62
2021/09/11 01:13:23;;;;;;;33.75;22.63;;;;;;;15.56;100.00;101331.06;2089695;28;20025;-64
2021/09/11 01:14:24;;;;;;;37.20;21.88;;;;;;;15.56;100.00;101331.91;2089861;28;20044;-63
2021/09/11 01:15:32;;;;;;;35.00;22.65;;;;;;;15.56;100.00;101336.31;2098231;28;20052;-62
2021/09/11 01:16:34;;;;;;;38.83;23.95;;;;;;;15.54;100.00;101327.69;2090531;28;20029;-63
2021/09/11 01:17:38;;;;;;;36.13;24.13;;;;;;;15.55;100.00;101332.84;2097035;28;20076;-62
2021/09/11 01:18:39;;;;;;;35.72;24.33;;;;;;;15.56;100.00;101334.53;2098746;28;20029;-62
2021/09/11 01:19:40;;;;;;;34.45;22.50;;;;;;;15.58;100.00;101331.84;2098109;28;20051;-63
2021/09/11 01:20:41;;;;;;;35.47;24.42;;;;;;;15.57;100.00;101332.78;2098253;28;20016;-62
2021/09/11 01:21:41;;;;;;;35.72;23.75;;;;;;;15.58;100.00;101332.66;2098733;28;20013;-62
2021/09/11 01:22:42;;;;;;;29.55;22.90;;;;;;;15.61;100.00;101326.41;2098699;28;20028;-61
2021/09/11 01:23:43;;;;;;;33.60;23.75;;;;;;;15.58;100.00;101334.47;2098740;28;20061;-61
2021/09/11 01:24:52;;;;;;;33.15;22.88;;;;;;;15.58;100.00;101329.19;2089879;28;20025;-62
2021/09/11 01:25:54;;;;;;;37.88;23.10;;;;;;;15.56;100.00;101331.06;2091097;28;20053;-63
2021/09/11 01:26:54;;;;;;;29.98;22.13;;;;;;;15.55;100.00;101330.22;2098739;28;20052;-62
2021/09/11 01:27:56;;;;;;;34.70;23.35;;;;;;;15.53;100.00;101333.88;2089636;28;20025;-62
2021/09/11 01:28:56;;;;;;;33.42;22.58;;;;;;;15.51;100.00;101330.47;2089917;28;20039;-64
2021/09/11 01:30:01;;;;;;;33.22;23.75;;;;;;;15.51;100.00;101331.34;2098698;28;20020;-63
2021/09/11 01:31:01;;;;;;;34.78;24.52;;;;;;;15.50;100.00;101331.41;2098725;28;20029;-62
2021/09/11 01:32:02;;;;;;;33.88;23.83;;;;;;;15.51;100.00;101335.72;2089684;28;20037;-63
2021/09/11 01:33:03;;;;;;;28.75;21.15;;;;;;;15.47;100.00;101327.19;2089833;28;20474;-64
2021/09/11 01:34:04;;;;;;;32.72;22.58;;;;;;;15.48;100.00;101334.13;2098609;28;20058;-62
2021/09/11 01:35:06;;;;;;;31.65;23.10;;;;;;;15.47;100.00;101326.31;2098656;28;20490;-62
2021/09/11 01:36:07;;;;;;;36.70;23.80;;;;;;;15.44;100.00;101333.44;2098704;28;20089;-61
2021/09/11 01:37:09;;;;;;;33.65;22.40;;;;;;;15.42;100.00;101330.06;2098568;28;20024;-62
2021/09/11 01:38:11;;;;;;;32.35;21.38;;;;;;;15.42;100.00;101330.06;2098525;28;20082;-63
2021/09/11 01:39:12;;;;;;;37.95;24.33;;;;;;;15.39;100.00;101335.47;2089748;28;20036;-62
2021/09/11 01:40:13;;;;;;;29.80;20.92;;;;;;;15.37;100.00;101333.88;2081469;28;20562;-63
2021/09/11 01:41:13;;;;;;;30.73;21.95;;;;;;;15.37;100.00;101332.09;2089869;28;20028;-61
2021/09/11 01:42:19;;;;;;;29.85;19.95;;;;;;;15.36;100.00;101340.06;2098582;28;20070;-61
2021/09/11 01:43:31;;;;;;;30.77;20.35;;;;;;;15.34;100.00;101334.88;2089418;28;20122;-62
2021/09/11 01:44:32;;;;;;;34.25;21.77;;;;;;;15.34;100.00;101337.53;2091324;28;20017;-63
2021/09/11 01:45:34;;;;;;;36.58;21.33;;;;;;;15.32;100.00;101334.97;2098605;28;20028;-61
2021/09/11 01:46:34;;;;;;;;;;;;;;;15.32;100.00;101334.09;2098919;28;20053;-62
2021/09/11 01:47:36;;;;;;;36.03;21.17;;;;;;;15.28;100.00;101325.56;2098611;28;20297;-62
2021/09/11 01:48:38;;;;;;;33.53;21.33;;;;;;;15.27;100.00;101333.53;2098618;28;20031;-63
2021/09/11 01:49:39;;;;;;;31.75;20.63;;;;;;;15.23;100.00;101332.00;2098551;28;20017;-62
2021/09/11 01:50:39;;;;;;;31.10;21.02;;;;;;;15.22;100.00;101330.31;2098556;28;20067;-62
2021/09/11 01:51:49;;;;;;;29.33;20.60;;;;;;;15.18;100.00;101327.84;2089629;28;20050;-62
2021/09/11 01:52:51;;;;;;;30.73;19.55;;;;;;;15.16;100.00;101334.94;2091012;28;20788;-61
2021/09/11 01:53:52;;;;;;;28.92;21.00;;;;;;;15.15;100.00;101327.13;2098475;28;20012;-64
2021/09/11 01:54:53;;;;;;;28.98;19.75;;;;;;;15.14;100.00;101334.19;2098577;28;20028;-62
2021/09/11 01:55:54;;;;;;;33.00;19.50;;;;;;;15.13;100.00;101334.28;2098492;28;20020;-61
2021/09/11 01:56:54;;;;;;;28.48;19.08;;;;;;;15.11;100.00;101339.63;2098635;28;20029;-62
2021/09/11 01:57:55;;;;;;;27.98;17.67;;;;;;;15.09;100.00;101340.63;2098393;28;20031;-62
2021/09/11 01:58:56;;;;;;;27.08;19.23;;;;;;;15.06;100.00;101342.47;2089416;28;20060;-61
2021/09/11 01:59:57;;;;;;;25.23;19.00;;;;;;;15.06;100.00;101341.66;2089695;28;20457;-62
2021/09/11 02:00:58;;;;;;;28.58;19.42;;;;;;;15.04;100.00;101335.59;2098549;28;20032;-62
2021/09/11 02:01:59;;;;;;;24.88;16.55;;;;;;;15.02;100.00;101340.94;2098464;28;20036;-62
2021/09/11 02:03:00;;;;;;;26.13;18.35;;;;;;;15.00;100.00;101344.59;2098467;28;20028;-63
2021/09/11 02:04:01;;;;;;;28.10;18.55;;;;;;;14.98;100.00;101335.97;2098522;28;20024;-63
2021/09/11 02:05:06;;;;;;;27.45;18.05;;;;;;;14.98;100.00;101347.28;2098481;28;20025;-63
2021/09/11 02:06:07;;;;;;;29.48;18.40;;;;;;;14.95;100.00;101346.63;2098498;28;20025;-62
2021/09/11 02:07:08;;;;;;;31.63;17.85;;;;;;;14.92;100.00;101343.22;2098467;28;20099;-62
2021/09/11 02:08:09;;;;;;;23.30;16.45;;;;;;;14.90;100.00;101347.72;2098417;28;20108;-61
2021/09/11 02:09:11;;;;;;;25.70;15.77;;;;;;;14.88;100.00;101351.34;2098458;28;20493;-62
2021/09/11 02:10:12;;;;;;;27.00;16.65;;;;;;;14.86;100.00;101346.19;2098485;28;20047;-61
2021/09/11 02:11:13;;;;;;;;;;;;;;;14.87;100.00;101345.25;2098766;28;20386;-62
2021/09/11 02:12:13;;;;;;;25.65;15.73;;;;;;;14.86;100.00;101343.56;2098425;28;20008;-62
2021/09/11 02:13:14;;;;;;;23.97;16.10;;;;;;;14.86;100.00;101343.56;2098239;28;20025;-62
2021/09/11 02:14:15;;;;;;;27.55;16.13;;;;;;;14.86;100.00;101346.19;2089422;28;20275;-63
2021/09/11 02:15:16;;;;;;;27.77;17.13;;;;;;;14.87;100.00;101339.13;2089600;28;20025;-63
2021/09/11 02:16:17;;;;;;;22.75;15.82;;;;;;;14.85;100.00;101341.84;2098434;28;20028;-62
2021/09/11 02:17:18;;;;;;;24.95;15.35;;;;;;;14.83;100.00;101348.97;2098189;28;20574;-62
2021/09/11 02:18:19;;;;;;;;;;;;;;;14.82;100.00;101352.53;2098849;28;20020;-62
2021/09/11 02:19:20;;;;;;;21.55;14.10;;;;;;;14.79;100.00;101347.44;2098518;28;19919;-63
2021/09/11 02:20:21;;;;;;;21.33;15.73;;;;;;;14.78;100.00;101341.31;2098471;28;20482;-62
2021/09/11 02:21:22;;;;;;;21.08;15.23;;;;;;;14.78;100.00;101337.84;2098440;28;20025;-61
2021/09/11 02:22:23;;;;;;;24.58;15.20;;;;;;;14.77;100.00;101337.00;2098364;28;20020;-61
2021/09/11 02:23:24;;;;;;;22.42;15.77;;;;;;;14.75;99.96;101332.72;2098340;28;20060;-62
2021/09/11 02:24:25;;;;;;;23.70;14.60;;;;;;;14.74;99.94;101341.50;2098446;28;20032;-61
2021/09/11 02:25:26;;;;;;;20.83;14.68;;;;;;;14.72;100.00;101344.25;2098421;28;20465;-62
2021/09/11 02:26:26;;;;;;;22.80;14.30;;;;;;;14.71;99.90;101345.16;2098462;28;20028;-62
2021/09/11 02:27:27;;;;;;;24.60;15.45;;;;;;;14.68;100.00;101340.09;2098433;28;20097;-62
2021/09/11 02:28:28;;;;;;;19.40;12.77;;;;;;;14.66;100.00;101342.78;2089300;28;20490;-62
2021/09/11 02:29:29;;;;;;;22.70;15.13;;;;;;;14.65;100.00;101346.31;2089522;28;20025;-61
2021/09/11 02:30:30;;;;;;;22.65;14.43;;;;;;;14.65;100.00;101346.31;2098411;28;20021;-62
2021/09/11 02:31:32;;;;;;;27.33;14.93;;;;;;;14.65;100.00;101351.56;2098305;28;20028;-62
2021/09/11 02:32:32;;;;;;;23.63;14.48;;;;;;;14.64;100.00;101349.88;2089356;28;20421;-62
2021/09/11 02:33:33;;;;;;;26.98;15.05;;;;;;;14.63;100.00;101353.44;2089483;28;20029;-61
2021/09/11 02:34:34;;;;;;;21.70;13.85;;;;;;;14.60;100.00;101343.09;2098417;28;20451;-62
2021/09/11 02:35:36;;;;;;;25.65;13.85;;;;;;;14.60;100.00;101347.50;2098348;28;20052;-62
2021/09/11 02:36:37;;;;;;;24.13;12.70;;;;;;;14.58;100.00;101344.09;2098434;28;20130;-62
2021/09/11 02:37:38;;;;;;;23.50;14.73;;;;;;;14.56;100.00;101352.06;2098270;28;20513;-62
2021/09/11 02:38:39;;;;;;;20.40;14.05;;;;;;;14.53;100.00;101344.34;2089434;28;20055;-62
2021/09/11 02:39:43;;;;;;;24.02;13.75;;;;;;;14.53;100.00;101346.97;2089413;28;20428;-62
2021/09/11 02:40:44;;;;;;;20.85;12.93;;;;;;;14.53;100.00;101346.97;2081622;28;20021;-61
2021/09/11 02:41:45;;;;;;;20.95;13.50;;;;;;;14.52;100.00;101340.00;2089486;28;20031;-62
2021/09/11 02:42:46;;;;;;;23.00;13.85;;;;;;;14.52;100.00;101347.91;2089396;28;20049;-61
2021/09/11 02:43:47;;;;;;;20.73;13.75;;;;;;;14.52;100.00;101340.00;2089373;28;20025;-63
2021/09/11 02:44:48;;;;;;;19.50;13.15;;;;;;;14.51;100.00;101338.31;2098351;28;20028;-63
2021/09/11 02:45:49;;;;;;;20.42;13.52;;;;;;;14.49;100.00;101345.41;2098510;28;20141;-62
2021/09/11 02:46:49;;;;;;;18.35;12.13;;;;;;;14.47;100.00;101344.66;2098289;28;20025;-62
2021/09/11 02:47:50;;;;;;;17.83;13.55;;;;;;;14.45;100.00;101344.75;2098329;28;20035;-62
2021/09/11 02:48:51;;;;;;;18.83;12.25;;;;;;;14.47;100.00;101355.16;2098427;28;20025;-61
2021/09/11 02:49:52;;;;;;;17.70;12.18;;;;;;;14.44;100.00;101348.28;2089474;28;20033;-62
2021/09/11 02:50:53;;;;;;;16.88;12.32;;;;;;;14.43;99.80;101343.94;2089491;28;20060;-62
2021/09/11 02:51:54;;;;;;;17.17;12.40;;;;;;;14.41;100.00;101351.91;2098246;28;20082;-63
2021/09/11 02:52:55;;;;;;;;;;;;;;;14.44;100.00;101336.94;2089700;28;20025;-62
2021/09/11 02:53:56;;;;;;;20.63;12.07;;;;;;;14.39;100.00;101340.66;2081117;28;19916;-62
2021/09/11 02:54:56;;;;;;;19.50;11.50;;;;;;;14.38;100.00;101338.97;2089580;28;20398;-63
2021/09/11 02:55:57;;;;;;;22.83;12.43;;;;;;;14.35;100.00;101341.72;2089313;28;20025;-62
2021/09/11 02:56:57;;;;;;;15.57;11.17;;;;;;;14.36;100.00;101340.78;2089347;28;20111;-62
2021/09/11 02:57:58;;;;;;;19.63;12.13;;;;;;;14.36;100.00;101346.03;2098270;28;20282;-63
2021/09/11 02:58:59;;;;;;;17.00;11.18;;;;;;;14.36;100.00;101339.94;2089183;28;20028;-62
2021/09/11 03:00:00;;;;;;;18.92;11.80;;;;;;;14.33;100.00;101351.44;2089322;28;20029;-62
2021/09/11 03:01:00;;;;;;;16.90;11.17;;;;;;;14.32;100.00;101336.63;2089726;28;20543;-62
2021/09/11 03:02:01;;;;;;;16.73;11.32;;;;;;;14.33;100.00;101343.56;2089282;28;20830;-63
2021/09/11 03:03:03;;;;;;;15.95;11.50;;;;;;;14.33;100.00;101343.56;2089521;28;20123;-61
2021/09/11 03:04:04;;;;;;;16.27;11.90;;;;;;;14.32;99.97;101343.66;2098257;28;20082;-62
2021/09/11 03:05:05;;;;;;;18.38;11.23;;;;;;;14.31;100.00;101342.81;2098244;28;20105;-62
2021/09/11 03:06:07;;;;;;;22.75;11.15;;;;;;;14.30;100.00;101341.09;2098241;28;20074;-62
2021/09/11 03:07:08;;;;;;;18.05;12.07;;;;;;;14.29;100.00;101340.25;2098232;28;20031;-62
2021/09/11 03:08:09;;;;;;;;;;;;;;;14.29;99.92;101345.50;2098716;28;20081;-61
2021/09/11 03:09:10;;;;;;;16.67;9.87;;;;;;;14.26;99.97;101342.19;2098266;28;19918;-62
2021/09/11 03:10:11;;;;;;;20.15;11.50;;;;;;;14.25;99.93;101338.72;2098237;28;20300;-62
2021/09/11 03:11:12;;;;;;;15.15;11.25;;;;;;;14.24;100.00;101331.75;2098135;28;20032;-61
2021/09/11 03:12:13;;;;;;;18.05;11.38;;;;;;;14.23;100.00;101344.97;2098286;28;20102;-61
2021/09/11 03:13:14;;;;;;;21.08;10.93;;;;;;;14.20;100.00;101345.13;2098175;28;20028;-63
2021/09/11 03:14:15;;;;;;;18.30;10.13;;;;;;;14.19;100.00;101338.19;2098184;28;20091;-62
2021/09/11 03:15:16;;;;;;;15.80;10.85;;;;;;;14.18;99.85;101339.09;2098211;28;20111;-63
2021/09/11 03:16:17;;;;;;;17.42;10.55;;;;;;;14.18;100.00;101339.94;2098157;28;20024;-63
2021/09/11 03:17:17;;;;;;;15.43;10.38;;;;;;;14.18;100.00;101336.47;2097979;28;20063;-63
2021/09/11 03:18:19;;;;;;;20.47;10.97;;;;;;;14.17;99.95;101343.50;2098239;28;20060;-62
2021/09/11 03:19:19;;;;;;;14.90;10.50;;;;;;;14.14;99.92;101341.84;2098203;28;20076;-62
2021/09/11 03:20:20;;;;;;;18.17;10.95;;;;;;;14.15;99.98;101340.09;2098107;28;20025;-62
2021/09/11 03:21:21;;;;;;;17.88;11.43;;;;;;;14.14;100.00;101341.84;2089219;28;20470;-62
2021/09/11 03:22:21;;;;;;;16.33;10.20;;;;;;;14.13;99.92;101345.41;2089364;28;20434;-62
2021/09/11 03:23:22;;;;;;;16.48;9.90;;;;;;;14.11;100.00;101339.41;2098006;28;20032;-62
2021/09/11 03:24:23;;;;;;;19.52;10.75;;;;;;;14.10;100.00;101344.72;2089179;28;20029;-61
2021/09/11 03:25:24;;;;;;;18.92;10.13;;;;;;;14.10;100.00;101344.72;2090801;28;20544;-62
2021/09/11 03:26:24;;;;;;;18.10;10.07;;;;;;;14.07;100.00;101335.25;2099723;28;20024;-62
2021/09/11 03:27:25;;;;;;;18.83;10.75;;;;;;;14.03;100.00;101334.53;2099743;28;20020;-63
2021/09/11 03:28:26;;;;;;;20.92;11.35;;;;;;;14.03;99.91;101346.81;2099613;28;20025;-63
2021/09/11 03:29:27;;;;;;;16.30;10.90;;;;;;;14.03;100.00;101339.78;2090693;28;20068;-63
2021/09/11 03:30:28;;;;;;;20.45;11.93;;;;;;;14.04;100.00;101335.38;2090783;28;20032;-61
2021/09/11 03:31:29;;;;;;;16.45;11.00;;;;;;;14.06;100.00;101338.75;2099511;28;20088;-64
2021/09/11 03:32:29;;;;;;;15.45;10.85;;;;;;;14.08;100.00;101347.44;2099653;28;20447;-63
2021/09/11 03:33:30;;;;;;;17.25;11.45;;;;;;;14.06;100.00;101338.75;2099654;28;20043;-62
2021/09/11 03:34:31;;;;;;;15.80;10.88;;;;;;;14.06;100.00;101341.38;2099652;28;20390;-62
2021/09/11 03:35:32;;;;;;;18.08;10.32;;;;;;;14.04;100.00;101343.25;2099453;28;20040;-63
2021/09/11 03:36:33;;;;;;;23.50;11.30;;;;;;;14.03;99.94;101345.03;2099583;28;20059;-63
2021/09/11 03:37:34;;;;;;;15.35;10.60;;;;;;;14.01;99.99;101341.63;2099499;28;20378;-62
2021/09/11 03:38:34;;;;;;;16.30;10.90;;;;;;;14.00;100.00;101344.34;2099561;28;20025;-63
2021/09/11 03:39:35;;;;;;;18.45;11.43;;;;;;;13.99;99.98;101342.66;2099613;28;20048;-63
2021/09/11 03:40:36;;;;;;;22.02;10.48;;;;;;;13.98;99.94;101352.28;2099569;28;20028;-63
2021/09/11 03:41:37;;;;;;;14.57;9.95;;;;;;;13.98;100.00;101343.53;2099599;28;20095;-63
2021/09/11 03:42:38;;;;;;;19.95;11.98;;;;;;;14.01;100.00;101346.03;2099569;28;20024;-62
2021/09/11 03:43:38;;;;;;;17.30;9.60;;;;;;;14.03;100.00;101347.66;2099477;28;20027;-61
2021/09/11 03:44:39;;;;;;;14.80;10.10;;;;;;;14.05;100.00;101344.94;2099578;28;20107;-61
2021/09/11 03:45:40;;;;;;;18.45;10.65;;;;;;;14.08;100.00;101350.06;2099570;28;20024;-63
2021/09/11 03:46:41;;;;;;;18.45;11.15;;;;;;;14.11;100.00;101352.53;2099539;28;20020;-62
2021/09/11 03:47:42;;;;;;;16.60;10.50;;;;;;;14.12;100.00;101348.97;2099398;28;20453;-62
2021/09/11 03:48:42;;;;;;;17.40;10.87;;;;;;;14.15;100.00;101350.59;2099555;28;20032;-61
2021/09/11 03:49:43;;;;;;;18.15;10.52;;;;;;;14.15;100.00;101347.97;2090454;28;20832;-61
2021/09/11 03:50:44;;;;;;;18.65;11.45;;;;;;;14.18;100.00;101346.97;2090679;28;20021;-62
2021/09/11 03:51:45;;;;;;;17.35;10.95;;;;;;;14.20;100.00;101347.75;2099495;28;20020;-62
2021/09/11 03:52:46;;;;;;;14.20;10.13;;;;;;;14.21;100.00;101347.69;2099469;28;20031;-62
2021/09/11 03:53:46;;;;;;;;;;;;;;;14.25;100.00;101348.34;2099907;28;20032;-62
2021/09/11 03:54:48;;;;;;;16.95;10.18;;;;;;;14.24;100.00;101346.66;2099546;28;19908;-62
2021/09/11 03:55:48;;;;;;;17.13;10.25;;;;;;;14.27;100.00;101351.78;2099460;28;20032;-61
2021/09/11 03:56:49;;;;;;;14.77;9.40;;;;;;;14.29;100.00;101349.91;2090437;28;20127;-63
2021/09/11 03:57:49;;;;;;;15.57;10.40;;;;;;;14.30;100.00;101351.59;2090409;28;20394;-61
2021/09/11 03:58:50;;;;;;;19.20;10.60;;;;;;;14.28;100.00;101351.69;2099328;28;20025;-62
2021/09/11 03:59:51;;;;;;;22.30;11.60;;;;;;;14.33;99.70;101346.19;2099338;28;20070;-62
2021/09/11 04:00:52;;;;;;;15.15;10.68;;;;;;;14.37;99.49;101358.25;2099401;28;20470;-61
2021/09/11 04:01:53;;;;;;;18.00;10.45;;;;;;;14.37;99.24;101352.16;2099342;28;20041;-62
2021/09/11 04:02:54;;;;;;;14.13;9.15;;;;;;;14.39;99.26;101351.16;2099440;28;20025;-62
2021/09/11 04:03:55;;;;;;;18.20;9.43;;;;;;;14.40;99.37;101357.22;2099372;28;20386;-61
2021/09/11 04:04:55;;;;;;;12.98;9.85;;;;;;;14.40;99.15;101352.84;2099446;28;20028;-63
2021/09/11 04:05:56;;;;;;;14.93;9.55;;;;;;;14.42;99.44;101355.38;2099453;28;20359;-62
2021/09/11 04:06:57;;;;;;;12.90;9.98;;;;;;;14.41;99.00;101354.53;2099368;28;20064;-63
2021/09/11 04:07:57;;;;;;;14.60;9.02;;;;;;;14.45;99.15;101354.38;2099419;28;20024;-62
2021/09/11 04:08:58;;;;;;;16.10;9.43;;;;;;;14.47;99.12;101358.63;2099385;28;20031;-62
2021/09/11 04:09:59;;;;;;;15.23;9.98;;;;;;;14.49;99.07;101358.56;2099387;28;20024;-63
2021/09/11 04:11:00;;;;;;;18.30;9.18;;;;;;;14.49;98.56;101355.94;2099346;28;20029;-62
2021/09/11 04:12:01;;;;;;;19.08;8.93;;;;;;;14.51;98.85;101354.91;2099237;28;20051;-63
2021/09/11 04:13:02;;;;;;;16.15;9.15;;;;;;;14.53;98.90;101354.84;2099357;28;20032;-62
2021/09/11 04:14:03;;;;;;;;;;;;;;;14.54;98.92;101349.50;2099621;28;20017;-63
2021/09/11 04:15:04;;;;;;;14.38;8.93;;;;;;;14.53;99.05;101352.22;2099373;28;19912;-63
2021/09/11 04:16:05;;;;;;;16.83;9.10;;;;;;;14.54;99.17;101354.75;2090335;28;20103;-63
2021/09/11 04:17:06;;;;;;;14.13;8.98;;;;;;;14.53;98.52;101362.72;2090114;28;20526;-62
2021/09/11 04:18:07;;;;;;;17.70;9.60;;;;;;;14.56;98.65;101352.06;2090278;28;20020;-61
2021/09/11 04:19:07;;;;;;;12.63;8.60;;;;;;;14.58;98.23;101352.84;2090450;28;20024;-61
2021/09/11 04:20:09;;;;;;;12.38;8.38;;;;;;;14.58;98.38;101355.47;2091008;28;20017;-62
2021/09/11 04:21:10;;;;;;;11.80;8.23;;;;;;;14.58;98.87;101355.47;2091013;28;20041;-62
2021/09/11 04:22:11;;;;;;;13.75;8.35;;;;;;;14.57;98.67;101350.28;2091010;28;20385;-62
2021/09/11 04:23:12;;;;;;;14.80;9.07;;;;;;;14.57;98.51;101353.75;2090962;28;20029;-63
2021/09/11 04:24:13;;;;;;;13.93;8.80;;;;;;;14.58;98.71;101352.84;2090948;28;20367;-62
2021/09/11 04:25:14;;;;;;;11.38;8.10;;;;;;;14.61;98.56;101350.03;2091002;28;20055;-62
2021/09/11 04:26:15;;;;;;;16.70;9.63;;;;;;;14.62;98.90;101354.38;2090958;28;20494;-62
2021/09/11 04:27:16;;;;;;;13.10;8.30;;;;;;;14.61;98.67;101360.53;2090975;28;20055;-62
2021/09/11 04:28:17;;;;;;;16.35;8.95;;;;;;;14.61;98.81;101352.66;2090933;28;20043;-62
2021/09/11 04:29:19;;;;;;;13.75;8.30;;;;;;;14.61;98.67;101354.47;2090930;28;20445;-62
2021/09/11 04:30:19;;;;;;;15.55;8.63;;;;;;;14.62;98.79;101349.13;2091032;28;20036;-62
2021/09/11 04:31:20;;;;;;;15.13;9.43;;;;;;;14.62;98.74;101357.00;2090935;28;20465;-62
2021/09/11 04:32:21;;;;;;;16.40;8.60;;;;;;;14.63;98.50;101347.34;2091050;28;20041;-62
2021/09/11 04:33:22;;;;;;;20.27;9.05;;;;;;;14.62;98.85;101351.75;2090835;28;20449;-63
2021/09/11 04:34:23;;;;;;;15.43;8.98;;;;;;;14.62;98.92;101349.13;2090331;28;20100;-62
2021/09/11 04:35:24;;;;;;;15.30;8.35;;;;;;;14.63;98.48;101345.56;2090300;28;20029;-62
2021/09/11 04:36:25;;;;;;;10.85;8.75;;;;;;;14.66;98.93;101347.19;2090112;28;20113;-62
2021/09/11 04:37:25;;;;;;;13.60;8.60;;;;;;;14.67;98.57;101344.47;2090226;28;20017;-61